createdAt,value
2022-12-13T00:02:01.831Z,7.13
2022-12-13T00:07:05.066Z,7.00
2022-12-13T00:12:08.438Z,7.10
2022-12-13T00:17:12.731Z,7.67
2022-12-13T00:22:16.801Z,7.77
2022-12-13T00:27:19.735Z,16.00
2022-12-13T00:32:24.749Z,10.10
2022-12-13T00:37:27.713Z,9.20
2022-12-13T00:42:30.648Z,5.47
2022-12-13T00:47:34.977Z,5.60
2022-12-13T00:52:38.167Z,4.47
2022-12-13T00:57:41.092Z,4.80
2022-12-13T01:02:46.011Z,6.50
2022-12-13T01:07:49.057Z,2.87
2022-12-13T01:12:52.017Z,5.23
2022-12-13T01:17:56.418Z,6.00
2022-12-13T01:22:59.378Z,7.00
2022-12-13T01:28:02.454Z,5.97
2022-12-13T01:33:14.447Z,6.33
2022-12-13T01:38:18.624Z,5.30
2022-12-13T01:43:21.651Z,5.30
2022-12-13T01:48:28.618Z,5.70
2022-12-13T01:53:34.848Z,6.13
2022-12-13T01:58:38.963Z,5.87
2022-12-13T02:03:43.930Z,5.13
2022-12-13T02:08:47.783Z,6.27
2022-12-13T02:13:50.761Z,4.73
2022-12-13T02:19:16.413Z,5.27
2022-12-13T02:24:46.791Z,3.60
2022-12-13T02:30:26.879Z,3.47
2022-12-13T02:35:39.711Z,6.17
2022-12-13T02:40:47.262Z,5.40
2022-12-13T02:45:54.442Z,3.63
2022-12-13T02:50:59.761Z,4.00
2022-12-13T02:56:02.827Z,4.27
2022-12-13T03:01:27.655Z,4.73
2022-12-13T03:06:41.059Z,5.17
2022-12-13T03:12:14.505Z,4.67
2022-12-13T03:17:21.611Z,4.50
2022-12-13T03:22:24.780Z,4.67
2022-12-13T03:27:28.281Z,3.50
2022-12-13T03:39:24.157Z,6.77
2022-12-13T03:44:31.395Z,4.37
2022-12-13T03:49:35.789Z,3.77
2022-12-13T03:54:40.214Z,4.37
2022-12-13T03:59:48.346Z,4.03
2022-12-13T04:04:51.357Z,4.47
2022-12-13T04:09:55.844Z,4.10
2022-12-13T04:14:58.753Z,3.80
2022-12-13T04:20:01.686Z,3.87
2022-12-13T04:25:06.788Z,4.10
2022-12-13T04:30:10.834Z,4.00
2022-12-13T04:35:14.095Z,5.07
2022-12-13T04:40:21.864Z,4.57
2022-12-13T04:45:25.486Z,4.63
2022-12-13T04:50:28.838Z,6.47
2022-12-13T04:55:33.155Z,4.97
2022-12-13T05:00:36.305Z,5.37
2022-12-13T05:05:40.563Z,4.80
2022-12-13T05:10:44.988Z,3.93
2022-12-13T05:15:52.170Z,3.97
2022-12-13T05:20:58.324Z,4.20
2022-12-13T05:26:02.888Z,5.37
2022-12-13T05:37:34.851Z,4.33
2022-12-13T05:42:39.942Z,5.67
2022-12-13T05:47:42.952Z,4.90
2022-12-13T05:52:46.550Z,4.20
2022-12-13T05:57:51.318Z,4.40
2022-12-13T06:02:54.886Z,4.57
2022-12-13T06:07:59.037Z,4.37
2022-12-13T06:13:21.150Z,3.23
2022-12-13T06:18:26.703Z,3.77
2022-12-13T06:23:31.759Z,4.37
2022-12-13T06:28:36.707Z,5.07
2022-12-13T06:33:40.031Z,8.03
2022-12-13T06:38:43.513Z,5.77
2022-12-13T06:43:49.301Z,3.77
2022-12-13T06:48:53.161Z,3.63
2022-12-13T06:53:56.403Z,3.20
2022-12-13T06:59:05.182Z,4.23
2022-12-13T07:04:29.957Z,3.30
2022-12-13T07:09:32.548Z,4.07
2022-12-13T07:14:40.623Z,3.50
2022-12-13T07:19:45.120Z,5.03
2022-12-13T07:24:48.508Z,4.63
2022-12-13T07:29:52.813Z,5.47
2022-12-13T07:34:56.035Z,7.10
2022-12-13T07:40:04.051Z,5.97
2022-12-13T07:45:10.608Z,6.30
2022-12-13T07:50:24.816Z,7.77
2022-12-13T07:55:33.407Z,8.20
2022-12-13T08:00:40.981Z,11.23
2022-12-13T08:05:49.478Z,8.43
2022-12-13T08:11:03.175Z,11.20
2022-12-13T08:16:26.404Z,6.73
2022-12-13T08:27:00.979Z,6.20
2022-12-13T08:32:09.184Z,4.33
2022-12-13T08:37:12.433Z,4.47
2022-12-13T08:42:19.208Z,4.30
2022-12-13T08:47:26.951Z,5.47
2022-12-13T08:52:30.470Z,4.77
2022-12-13T08:57:36.516Z,3.20
2022-12-13T09:02:40.991Z,5.20
2022-12-13T09:07:44.143Z,6.77
2022-12-13T09:12:47.971Z,5.13
2022-12-13T09:17:52.988Z,5.90
2022-12-13T09:23:01.638Z,4.47
2022-12-13T09:28:07.635Z,6.30
2022-12-13T09:33:28.151Z,6.23
2022-12-13T09:38:33.440Z,5.60
2022-12-13T09:43:43.196Z,6.80
2022-12-13T09:48:48.917Z,4.40
2022-12-13T09:53:54.053Z,5.03
2022-12-13T09:58:58.716Z,4.00
2022-12-13T10:04:03.027Z,3.67
2022-12-13T10:09:09.430Z,6.07
2022-12-13T10:14:18.109Z,6.13
2022-12-13T10:19:30.068Z,6.47
2022-12-13T10:24:50.776Z,4.43
2022-12-13T10:30:06.719Z,7.63
2022-12-13T10:35:29.048Z,6.40
2022-12-13T10:40:34.176Z,5.00
2022-12-13T10:45:37.544Z,5.70
2022-12-13T10:50:42.103Z,5.33
2022-12-13T10:55:45.471Z,7.13
2022-12-13T11:00:49.375Z,4.83
2022-12-13T11:06:04.524Z,5.80
2022-12-13T11:11:09.245Z,4.10
2022-12-13T11:16:23.958Z,4.43
2022-12-13T11:21:30.961Z,6.17
2022-12-13T11:26:37.395Z,4.47
2022-12-13T11:31:49.841Z,5.60
2022-12-13T11:37:02.519Z,4.63
2022-12-13T11:42:11.961Z,5.40
2022-12-13T11:47:20.805Z,4.63
2022-12-13T11:52:31.098Z,6.07
2022-12-13T11:57:44.030Z,6.77
2022-12-13T12:02:52.077Z,8.27
2022-12-13T12:08:43.625Z,7.97
2022-12-13T12:13:29.577Z,13.37
2022-12-13T12:18:33.236Z,10.30
2022-12-13T12:23:54.689Z,10.27
2022-12-13T12:29:19.793Z,9.27
2022-12-13T12:34:36.232Z,9.53
2022-12-13T12:39:57.758Z,7.40
2022-12-13T12:45:26.999Z,10.63
2022-12-13T12:50:43.338Z,6.80
2022-12-13T12:55:55.419Z,6.70
2022-12-13T13:01:14.714Z,6.40
2022-12-13T13:06:22.177Z,4.93
2022-12-13T13:11:28.990Z,5.77
2022-12-13T13:16:35.541Z,7.03
2022-12-13T13:21:48.606Z,6.50
2022-12-13T13:26:55.276Z,5.40
2022-12-13T13:32:02.178Z,6.37
2022-12-13T13:37:29.978Z,3.30
2022-12-13T13:42:34.488Z,3.20
2022-12-13T13:47:42.826Z,3.57
2022-12-13T13:53:00.626Z,4.27
2022-12-13T13:58:49.754Z,5.70
2022-12-13T14:04:14.079Z,3.80
2022-12-13T14:09:39.024Z,3.80
2022-12-13T14:15:17.629Z,4.33
2022-12-13T14:20:45.461Z,2.80
2022-12-13T14:26:18.953Z,3.43
2022-12-13T14:31:26.245Z,2.67
2022-12-13T14:36:32.312Z,3.03
2022-12-13T14:41:45.858Z,4.40
2022-12-13T14:46:56.276Z,4.70
2022-12-13T14:52:04.093Z,4.70
2022-12-13T14:57:07.158Z,5.80
2022-12-13T15:02:31.211Z,4.73
2022-12-13T15:07:38.058Z,5.57
2022-12-13T15:12:43.331Z,4.90
2022-12-13T15:17:47.712Z,3.77
2022-12-13T15:23:01.486Z,3.93
2022-12-13T15:28:07.883Z,3.93
2022-12-13T15:33:20.745Z,4.27
2022-12-13T15:38:28.513Z,4.07
2022-12-13T15:43:37.303Z,3.80
2022-12-13T15:48:48.641Z,5.20
2022-12-13T15:54:05.191Z,4.23
2022-12-13T15:59:26.084Z,4.43
2022-12-13T16:04:32.978Z,4.00
2022-12-13T16:09:38.258Z,4.60
2022-12-13T16:14:48.798Z,5.47
2022-12-13T16:19:55.191Z,5.10
2022-12-13T16:24:59.493Z,3.77
2022-12-13T16:30:02.477Z,4.20
2022-12-13T16:35:07.904Z,3.93
2022-12-13T16:40:26.270Z,4.87
2022-12-13T16:45:41.658Z,4.90
2022-12-13T16:50:48.253Z,4.57
2022-12-13T16:56:00.974Z,4.40
2022-12-13T17:01:09.686Z,4.30
2022-12-13T17:06:17.749Z,5.37
2022-12-13T17:11:20.725Z,4.40
2022-12-13T17:16:23.755Z,6.00
2022-12-13T17:21:29.671Z,4.47
2022-12-13T17:26:32.790Z,7.33
2022-12-13T17:31:36.455Z,6.33
2022-12-13T17:36:40.856Z,5.27
2022-12-13T17:41:43.831Z,4.03
2022-12-13T17:46:57.907Z,5.03
2022-12-13T17:52:02.877Z,4.57
2022-12-13T17:57:06.032Z,5.10
2022-12-13T18:02:13.505Z,5.90
2022-12-13T18:07:17.936Z,5.83
2022-12-13T18:12:20.925Z,6.23
2022-12-13T18:17:46.669Z,4.93
2022-12-13T18:22:51.521Z,5.40
2022-12-13T18:28:00.839Z,5.53
2022-12-13T18:33:05.505Z,5.37
2022-12-13T18:38:10.503Z,4.83
2022-12-13T18:43:13.511Z,6.57
2022-12-13T18:48:17.327Z,5.63
2022-12-13T18:53:23.316Z,5.17
2022-12-13T18:58:26.751Z,5.13
2022-12-13T19:03:30.201Z,5.80
2022-12-13T19:08:36.499Z,5.43
2022-12-13T19:13:39.630Z,6.50
2022-12-13T19:18:42.605Z,4.17
2022-12-13T19:23:54.909Z,5.13
2022-12-13T19:29:02.073Z,4.97
2022-12-13T19:34:05.360Z,5.73
2022-12-13T19:39:12.303Z,5.87
2022-12-13T19:44:15.291Z,5.37
2022-12-13T19:49:21.030Z,4.93
2022-12-13T19:54:26.591Z,4.13
2022-12-13T19:59:29.557Z,4.53
2022-12-13T20:04:33.028Z,5.13
2022-12-13T20:09:39.738Z,3.50
2022-12-13T20:14:43.125Z,4.73
2022-12-13T20:19:46.026Z,4.30
2022-12-13T20:24:50.361Z,3.73
2022-12-13T20:29:53.483Z,5.07
2022-12-13T20:34:56.655Z,3.13
2022-12-13T20:40:01.276Z,4.33
2022-12-13T20:45:04.477Z,4.30
2022-12-13T20:50:09.067Z,4.40
2022-12-13T20:55:13.794Z,4.43
2022-12-13T21:00:18.457Z,3.70
2022-12-13T21:05:21.449Z,4.37
2022-12-13T21:10:25.779Z,4.50
2022-12-13T21:15:28.711Z,3.53
2022-12-13T21:20:31.807Z,4.90
2022-12-13T21:25:36.202Z,4.93
2022-12-13T21:30:39.118Z,3.63
2022-12-13T21:35:42.104Z,3.93
2022-12-13T21:40:48.009Z,2.73
2022-12-13T21:45:51.191Z,3.60
2022-12-13T21:50:54.155Z,3.00
2022-12-13T21:56:12.612Z,4.27
2022-12-13T22:01:15.649Z,4.83
2022-12-13T22:06:18.670Z,4.07
2022-12-13T22:11:23.006Z,5.23
2022-12-13T22:16:26.806Z,5.27
2022-12-13T22:21:29.939Z,5.07
2022-12-13T22:26:34.239Z,5.83
2022-12-13T22:31:37.199Z,5.50
2022-12-13T22:36:40.196Z,5.77
2022-12-13T22:41:45.877Z,4.40
2022-12-13T22:46:48.999Z,4.67
2022-12-13T22:51:51.933Z,4.67
2022-12-13T22:56:56.278Z,4.07
2022-12-13T23:02:02.587Z,4.73
2022-12-13T23:07:08.466Z,5.23
2022-12-13T23:12:31.047Z,3.30
2022-12-13T23:17:34.372Z,5.27
2022-12-13T23:22:37.623Z,4.97
2022-12-13T23:27:41.936Z,4.87
2022-12-13T23:32:53.825Z,3.60
2022-12-13T23:37:56.872Z,3.60
2022-12-13T23:43:01.206Z,4.83
2022-12-13T23:48:04.266Z,5.00
2022-12-13T23:53:07.223Z,6.10
2022-12-13T23:58:11.608Z,6.97
